Flight Track Log - Related Links

Times and Time Zones

All times are in EDT time to prevent confusion due to time zone crossing. See the SKW5631 flight status page for this flight to view local times or setup timezone preferences in your user account.

Time Position Orientation Groundspeed Altitude Reporting Facility
EDT Latitude Longitude Course Direction KTS MPH feet Rate Location/Type
Thu 09:26:15 PM 37.6433 -122.3661 356° North 167 192 1,000  Level Oakland Center
Thu 09:27:16 PM 37.6994 -122.3711 356° North 244 281 2,900 2,439 Climbing Oakland Center
Thu 09:28:18 PM 37.6806 -122.4422 251° West 268 308 6,000 2,878 Climbing Oakland Center
Thu 09:29:19 PM 37.6061 -122.4603 191° South 277 319 8,800 2,390 Climbing Oakland Center
Thu 09:30:21 PM 37.5244 -122.4842 193° South 295 339 10,900 2,390 Climbing Oakland Center
Thu 09:31:22 PM 37.4333 -122.4792 178° South 331 381 13,700 2,656 Climbing Oakland Center
Thu 09:32:23 PM 37.3611 -122.3989 139° Southeast 346 398 16,300 2,049 Climbing Oakland Center
Thu 09:33:25 PM 37.2867 -122.3161 138° Southeast 355 409 17,900 1,707 Climbing Oakland Center
Thu 09:34:26 PM 37.2069 -122.2233 137° Southeast 388 447 19,800 2,000 Climbing Oakland Center
Thu 09:35:28 PM 37.1058 -122.1089 138° Southeast 407 468 22,000 1,951 Climbing Oakland Center
Thu 09:36:29 PM 37.0194 -122.0097 137° Southeast 422 486 23,800 1,672 Climbing Oakland Center
Thu 09:37:30 PM 36.9308 -121.9078 137° Southeast 430 495 25,400 1,512 Climbing Oakland Center
Thu 09:38:32 PM 36.8414 -121.8053 137° Southeast 433 498 26,900 1,268 Climbing Oakland Center
Thu 09:39:33 PM 36.7511 -121.7044 138° Southeast 449 517 28,000 1,073 Climbing Oakland Center
Thu 09:40:35 PM 36.6569 -121.5992 138° Southeast 453 521 29,100 1,024 Climbing Oakland Center
Thu 09:41:36 PM 36.5608 -121.4903 138° Southeast 465 535 30,100 1,073 Climbing Oakland Center
Thu 09:42:38 PM 36.4442 -121.3583 138° Southeast 469 540 31,300 1,122 Climbing Oakland Center
Thu 09:43:39 PM 36.3464 -121.2489 138° Southeast 474 545 32,400 836 Climbing Oakland Center
Thu 09:44:40 PM 36.2494 -121.1375 137° Southeast 474 545 33,000 293 Climbing Oakland Center
Thu 09:45:42 PM 36.1475 -121.0253 138° Southeast 490 564 33,000  Level Oakland Center
Thu 09:46:43 PM 36.0461 -120.9114 138° Southeast 492 566 33,000 -49 Level Oakland Center
Thu 09:47:45 PM 35.9442 -120.7969 138° Southeast 493 567 32,900  Descending Oakland Center
Thu 09:48:46 PM 35.8442 -120.6867 138° Southeast 486 559 33,000 49 Climbing Oakland Center
Thu 09:49:48 PM 35.7458 -120.5772 138° Southeast 479 551 33,000  Level Oakland Center
Thu 09:50:49 PM 35.6303 -120.4506 138° Southeast 468 539 33,000  Level Oakland Center
Thu 09:51:51 PM 35.5397 -120.3517 138° Southeast 469 540 33,000 -97 Level Los Angeles Center
Thu 09:52:53 PM 35.4414 -120.2444 138° Southeast 471 542 32,800 -1,306 Descending Los Angeles Center
Thu 09:53:55 PM 35.3311 -120.1217 138° Southeast 473 544 30,300 -2,262 Descending Los Angeles Center
Thu 09:55:56 PM 35.1372 -119.9142 139° Southeast 464 534 25,900 -2,141 Descending Oakland Center
Thu 09:57:00 PM 35.0497 -119.8086 135° Southeast 447 514 23,700 -1,714 Descending Los Angeles Center
Thu 09:58:02 PM 34.9714 -119.6997 131° Southeast 431 496 22,300 -1,355 Descending Los Angeles Center
Thu 09:59:04 PM 34.8869 -119.5867 132° Southeast 448 516 20,900 -1,512 Descending Los Angeles Center
Thu 10:00:05 PM 34.8044 -119.4767 132° Southeast 445 512 19,200 -1,902 Descending Los Angeles Center
Thu 10:01:07 PM 34.7069 -119.3442 132° Southeast 441 507 17,000 -2,323 Descending Los Angeles Center
Thu 10:02:09 PM 34.6275 -119.2361 132° Southeast 434 499 14,400 -2,661 Descending Los Angeles Center
Thu 10:03:11 PM 34.5636 -119.1225 124° Southeast 396 456 11,500 -1,659 Descending Los Angeles Center
Thu 10:04:12 PM 34.5136 -119.0258 122° Southeast 324 373 11,000 -488 Descending Los Angeles Center
Thu 10:05:14 PM 34.4494 -118.9667 143° Southeast 297 342 10,500 -1,258 Descending Los Angeles Center
Thu 10:06:16 PM 34.3783 -118.9061 145° Southeast 311 358 8,400 -1,790 Descending Los Angeles Center
Thu 10:07:18 PM 34.3167 -118.8386 138° Southeast 297 342 6,800 -1,561 Descending Los Angeles Center
Thu 10:08:19 PM 34.2622 -118.7736 135° Southeast 274 315 5,200 -1,561 Descending Los Angeles Center
Thu 10:09:21 PM 34.2250 -118.6753 115° Southeast 270 311 3,600 -968 Descending Los Angeles Center
Thu 10:10:23 PM 34.2006 -118.5925 110° East 265 305 3,200 -339 Descending Los Angeles Center
Thu 10:11:25 PM 34.1994 -118.5169 91° East 240 276 2,900 -387 Descending Los Angeles Center
Thu 10:12:27 PM 34.2000 -118.4581 89° East 205 236 2,400 -732 Descending Los Angeles Center
Thu 10:13:28 PM 34.1989 -118.4108 92° East 164 189 1,400 -683 Descending Los Angeles Center
Thu 10:14:30 PM 34.1986 -118.3600 90° East 151 174 1,000 -387 Descending Los Angeles Center

Login

Don't have an account? Register now (free) for customized features, flight alerts, and more!